sensor_id;sensor_type;location;lat;lon;timestamp;P1;durP1;ratioP1;P2;durP2;ratioP2
7813;SDS011;3952;48.364;16.022;2022-08-25T00:01:52;8.40;;;7.90;;
7813;SDS011;3952;48.364;16.022;2022-08-25T00:04:21;9.63;;;8.80;;
7813;SDS011;3952;48.364;16.022;2022-08-25T00:06:49;9.10;;;8.53;;
7813;SDS011;3952;48.364;16.022;2022-08-25T00:09:20;9.70;;;9.10;;
7813;SDS011;3952;48.364;16.022;2022-08-25T00:11:49;9.13;;;8.40;;
7813;SDS011;3952;48.364;16.022;2022-08-25T00:14:19;9.63;;;8.87;;
7813;SDS011;3952;48.364;16.022;2022-08-25T00:16:49;9.43;;;8.83;;
7813;SDS011;3952;48.364;16.022;2022-08-25T00:19:18;9.60;;;9.00;;
7813;SDS011;3952;48.364;16.022;2022-08-25T00:21:48;9.83;;;8.83;;
7813;SDS011;3952;48.364;16.022;2022-08-25T00:24:16;10.07;;;9.27;;
7813;SDS011;3952;48.364;16.022;2022-08-25T00:26:46;9.57;;;8.83;;
7813;SDS011;3952;48.364;16.022;2022-08-25T00:29:15;9.57;;;8.80;;
7813;SDS011;3952;48.364;16.022;2022-08-25T00:31:45;10.40;;;9.30;;
7813;SDS011;3952;48.364;16.022;2022-08-25T00:34:37;9.47;;;8.77;;
7813;SDS011;3952;48.364;16.022;2022-08-25T00:37:05;9.90;;;9.00;;
7813;SDS011;3952;48.364;16.022;2022-08-25T00:39:35;9.53;;;8.83;;
7813;SDS011;3952;48.364;16.022;2022-08-25T00:42:04;8.80;;;8.30;;
7813;SDS011;3952;48.364;16.022;2022-08-25T00:44:32;8.97;;;8.43;;
7813;SDS011;3952;48.364;16.022;2022-08-25T00:47:02;9.43;;;8.83;;
7813;SDS011;3952;48.364;16.022;2022-08-25T00:49:34;10.20;;;9.10;;
7813;SDS011;3952;48.364;16.022;2022-08-25T00:52:05;9.83;;;9.23;;
7813;SDS011;3952;48.364;16.022;2022-08-25T00:54:36;10.60;;;9.40;;
7813;SDS011;3952;48.364;16.022;2022-08-25T00:57:06;9.90;;;9.03;;
7813;SDS011;3952;48.364;16.022;2022-08-25T00:59:37;11.00;;;9.87;;
7813;SDS011;3952;48.364;16.022;2022-08-25T01:02:07;10.20;;;9.53;;
7813;SDS011;3952;48.364;16.022;2022-08-25T01:04:37;10.40;;;9.50;;
7813;SDS011;3952;48.364;16.022;2022-08-25T01:07:04;10.80;;;9.23;;
7813;SDS011;3952;48.364;16.022;2022-08-25T01:09:31;10.40;;;9.60;;
7813;SDS011;3952;48.364;16.022;2022-08-25T01:11:59;10.23;;;9.23;;
7813;SDS011;3952;48.364;16.022;2022-08-25T01:14:27;10.13;;;9.43;;
7813;SDS011;3952;48.364;16.022;2022-08-25T01:16:57;10.63;;;9.90;;
7813;SDS011;3952;48.364;16.022;2022-08-25T01:19:26;10.10;;;9.40;;
7813;SDS011;3952;48.364;16.022;2022-08-25T01:21:55;10.97;;;10.17;;
7813;SDS011;3952;48.364;16.022;2022-08-25T01:24:25;11.67;;;10.13;;
7813;SDS011;3952;48.364;16.022;2022-08-25T01:26:58;12.07;;;11.10;;
7813;SDS011;3952;48.364;16.022;2022-08-25T01:29:25;10.77;;;9.67;;
7813;SDS011;3952;48.364;16.022;2022-08-25T01:31:54;10.87;;;10.07;;
7813;SDS011;3952;48.364;16.022;2022-08-25T01:34:25;12.10;;;10.97;;
7813;SDS011;3952;48.364;16.022;2022-08-25T01:36:53;11.67;;;10.47;;
7813;SDS011;3952;48.364;16.022;2022-08-25T01:39:23;11.53;;;10.63;;
7813;SDS011;3952;48.364;16.022;2022-08-25T01:42:02;10.50;;;9.60;;
7813;SDS011;3952;48.364;16.022;2022-08-25T01:44:45;10.40;;;9.53;;
7813;SDS011;3952;48.364;16.022;2022-08-25T01:47:13;10.60;;;9.63;;
7813;SDS011;3952;48.364;16.022;2022-08-25T01:49:41;14.33;;;9.70;;
7813;SDS011;3952;48.364;16.022;2022-08-25T01:52:11;11.73;;;10.37;;
7813;SDS011;3952;48.364;16.022;2022-08-25T01:54:42;11.17;;;10.07;;
7813;SDS011;3952;48.364;16.022;2022-08-25T01:57:09;9.83;;;9.03;;
7813;SDS011;3952;48.364;16.022;2022-08-25T01:59:37;12.23;;;10.77;;
7813;SDS011;3952;48.364;16.022;2022-08-25T02:02:05;11.27;;;10.17;;
7813;SDS011;3952;48.364;16.022;2022-08-25T02:04:32;11.30;;;10.20;;
7813;SDS011;3952;48.364;16.022;2022-08-25T02:07:00;10.67;;;9.80;;
7813;SDS011;3952;48.364;16.022;2022-08-25T02:09:30;11.57;;;10.37;;
7813;SDS011;3952;48.364;16.022;2022-08-25T02:11:58;12.03;;;9.93;;
7813;SDS011;3952;48.364;16.022;2022-08-25T02:14:25;10.50;;;9.50;;
7813;SDS011;3952;48.364;16.022;2022-08-25T02:16:53;10.73;;;10.00;;
7813;SDS011;3952;48.364;16.022;2022-08-25T02:19:21;10.83;;;9.97;;
7813;SDS011;3952;48.364;16.022;2022-08-25T02:21:50;11.40;;;10.20;;
7813;SDS011;3952;48.364;16.022;2022-08-25T02:24:17;11.43;;;10.43;;
7813;SDS011;3952;48.364;16.022;2022-08-25T02:26:46;10.80;;;10.00;;
7813;SDS011;3952;48.364;16.022;2022-08-25T02:29:14;10.80;;;9.93;;
7813;SDS011;3952;48.364;16.022;2022-08-25T02:31:42;10.97;;;10.03;;
7813;SDS011;3952;48.364;16.022;2022-08-25T02:34:10;11.83;;;10.73;;
7813;SDS011;3952;48.364;16.022;2022-08-25T02:36:39;11.43;;;10.63;;
7813;SDS011;3952;48.364;16.022;2022-08-25T02:39:08;11.53;;;10.63;;
7813;SDS011;3952;48.364;16.022;2022-08-25T02:41:35;13.27;;;11.10;;
7813;SDS011;3952;48.364;16.022;2022-08-25T02:44:06;11.53;;;10.47;;
7813;SDS011;3952;48.364;16.022;2022-08-25T02:46:34;11.33;;;10.53;;
7813;SDS011;3952;48.364;16.022;2022-08-25T02:49:03;12.47;;;11.37;;
7813;SDS011;3952;48.364;16.022;2022-08-25T02:51:31;11.70;;;10.83;;
7813;SDS011;3952;48.364;16.022;2022-08-25T02:53:59;12.47;;;11.27;;
7813;SDS011;3952;48.364;16.022;2022-08-25T02:56:28;13.27;;;10.83;;
7813;SDS011;3952;48.364;16.022;2022-08-25T02:58:56;12.60;;;11.43;;
7813;SDS011;3952;48.364;16.022;2022-08-25T03:01:25;13.40;;;12.20;;
7813;SDS011;3952;48.364;16.022;2022-08-25T03:03:53;12.03;;;11.00;;
7813;SDS011;3952;48.364;16.022;2022-08-25T03:06:20;14.37;;;11.40;;
7813;SDS011;3952;48.364;16.022;2022-08-25T03:08:48;12.93;;;11.73;;
7813;SDS011;3952;48.364;16.022;2022-08-25T03:11:16;15.03;;;12.53;;
7813;SDS011;3952;48.364;16.022;2022-08-25T03:13:43;12.50;;;11.20;;
7813;SDS011;3952;48.364;16.022;2022-08-25T03:16:11;11.67;;;10.53;;
7813;SDS011;3952;48.364;16.022;2022-08-25T03:18:40;11.20;;;10.13;;
7813;SDS011;3952;48.364;16.022;2022-08-25T03:21:08;12.30;;;11.17;;
7813;SDS011;3952;48.364;16.022;2022-08-25T03:23:36;12.77;;;11.17;;
7813;SDS011;3952;48.364;16.022;2022-08-25T03:26:05;12.90;;;11.83;;
7813;SDS011;3952;48.364;16.022;2022-08-25T03:28:50;11.67;;;10.73;;
7813;SDS011;3952;48.364;16.022;2022-08-25T03:31:18;11.43;;;10.63;;
7813;SDS011;3952;48.364;16.022;2022-08-25T03:33:47;12.00;;;10.77;;
7813;SDS011;3952;48.364;16.022;2022-08-25T03:36:14;12.77;;;11.43;;
7813;SDS011;3952;48.364;16.022;2022-08-25T03:38:41;11.87;;;10.60;;
7813;SDS011;3952;48.364;16.022;2022-08-25T03:41:13;12.27;;;11.13;;
7813;SDS011;3952;48.364;16.022;2022-08-25T03:43:41;11.27;;;10.47;;
7813;SDS011;3952;48.364;16.022;2022-08-25T03:46:14;11.97;;;11.07;;
7813;SDS011;3952;48.364;16.022;2022-08-25T03:48:43;11.03;;;10.30;;
7813;SDS011;3952;48.364;16.022;2022-08-25T03:51:17;11.80;;;10.80;;
7813;SDS011;3952;48.364;16.022;2022-08-25T03:53:45;12.13;;;11.03;;
7813;SDS011;3952;48.364;16.022;2022-08-25T03:56:12;12.27;;;11.23;;
7813;SDS011;3952;48.364;16.022;2022-08-25T03:58:39;15.07;;;11.47;;
7813;SDS011;3952;48.364;16.022;2022-08-25T04:01:06;11.47;;;10.67;;
7813;SDS011;3952;48.364;16.022;2022-08-25T04:03:34;12.00;;;11.00;;
7813;SDS011;3952;48.364;16.022;2022-08-25T04:06:01;12.07;;;10.80;;
7813;SDS011;3952;48.364;16.022;2022-08-25T04:08:31;11.37;;;10.47;;
7813;SDS011;3952;48.364;16.022;2022-08-25T04:10:58;11.67;;;10.80;;
7813;SDS011;3952;48.364;16.022;2022-08-25T04:13:30;12.77;;;11.40;;
7813;SDS011;3952;48.364;16.022;2022-08-25T04:15:57;11.33;;;10.33;;
7813;SDS011;3952;48.364;16.022;2022-08-25T04:18:25;12.13;;;11.03;;
7813;SDS011;3952;48.364;16.022;2022-08-25T04:20:58;12.43;;;11.63;;
7813;SDS011;3952;48.364;16.022;2022-08-25T04:23:28;12.10;;;10.27;;
7813;SDS011;3952;48.364;16.022;2022-08-25T04:25:57;11.93;;;10.83;;
7813;SDS011;3952;48.364;16.022;2022-08-25T04:28:24;11.33;;;10.20;;
7813;SDS011;3952;48.364;16.022;2022-08-25T04:30:51;10.70;;;10.00;;
7813;SDS011;3952;48.364;16.022;2022-08-25T04:33:18;11.30;;;10.20;;
7813;SDS011;3952;48.364;16.022;2022-08-25T04:35:46;11.53;;;10.60;;
7813;SDS011;3952;48.364;16.022;2022-08-25T04:38:14;11.83;;;10.43;;
7813;SDS011;3952;48.364;16.022;2022-08-25T04:40:41;11.63;;;10.43;;
7813;SDS011;3952;48.364;16.022;2022-08-25T04:43:10;11.27;;;10.47;;
7813;SDS011;3952;48.364;16.022;2022-08-25T04:45:38;11.80;;;10.70;;
7813;SDS011;3952;48.364;16.022;2022-08-25T04:48:05;11.93;;;11.03;;
7813;SDS011;3952;48.364;16.022;2022-08-25T04:50:32;11.80;;;10.80;;
7813;SDS011;3952;48.364;16.022;2022-08-25T04:53:03;11.17;;;10.37;;
7813;SDS011;3952;48.364;16.022;2022-08-25T04:55:30;11.60;;;10.60;;
7813;SDS011;3952;48.364;16.022;2022-08-25T04:57:57;11.87;;;10.87;;
7813;SDS011;3952;48.364;16.022;2022-08-25T05:00:26;12.83;;;10.80;;
7813;SDS011;3952;48.364;16.022;2022-08-25T05:02:53;11.93;;;10.83;;
7813;SDS011;3952;48.364;16.022;2022-08-25T05:05:20;13.17;;;11.80;;
7813;SDS011;3952;48.364;16.022;2022-08-25T05:07:47;13.07;;;11.67;;
7813;SDS011;3952;48.364;16.022;2022-08-25T05:10:15;11.97;;;10.97;;
7813;SDS011;3952;48.364;16.022;2022-08-25T05:12:42;11.53;;;10.60;;
7813;SDS011;3952;48.364;16.022;2022-08-25T05:15:10;13.63;;;12.37;;
7813;SDS011;3952;48.364;16.022;2022-08-25T05:18:04;13.07;;;11.93;;
7813;SDS011;3952;48.364;16.022;2022-08-25T05:20:34;13.13;;;11.87;;
7813;SDS011;3952;48.364;16.022;2022-08-25T05:23:02;13.73;;;12.53;;
7813;SDS011;3952;48.364;16.022;2022-08-25T05:25:30;12.40;;;11.50;;
7813;SDS011;3952;48.364;16.022;2022-08-25T05:27:57;13.13;;;11.93;;
7813;SDS011;3952;48.364;16.022;2022-08-25T05:30:24;13.07;;;11.80;;
7813;SDS011;3952;48.364;16.022;2022-08-25T05:32:52;12.77;;;11.53;;
7813;SDS011;3952;48.364;16.022;2022-08-25T05:35:20;12.40;;;11.20;;
7813;SDS011;3952;48.364;16.022;2022-08-25T05:37:48;10.53;;;9.73;;
7813;SDS011;3952;48.364;16.022;2022-08-25T05:40:15;11.17;;;10.37;;
7813;SDS011;3952;48.364;16.022;2022-08-25T05:42:43;10.90;;;10.00;;
7813;SDS011;3952;48.364;16.022;2022-08-25T05:45:10;11.27;;;10.13;;
7813;SDS011;3952;48.364;16.022;2022-08-25T05:47:38;10.47;;;9.67;;
7813;SDS011;3952;48.364;16.022;2022-08-25T05:50:05;10.43;;;9.53;;
7813;SDS011;3952;48.364;16.022;2022-08-25T05:52:35;9.93;;;9.07;;
7813;SDS011;3952;48.364;16.022;2022-08-25T05:55:03;9.57;;;8.80;;
7813;SDS011;3952;48.364;16.022;2022-08-25T05:57:32;9.77;;;9.17;;
7813;SDS011;3952;48.364;16.022;2022-08-25T05:59:59;8.60;;;8.10;;
7813;SDS011;3952;48.364;16.022;2022-08-25T06:02:27;10.20;;;8.70;;
7813;SDS011;3952;48.364;16.022;2022-08-25T06:05:06;9.67;;;8.77;;
7813;SDS011;3952;48.364;16.022;2022-08-25T06:07:33;9.43;;;8.73;;
7813;SDS011;3952;48.364;16.022;2022-08-25T06:10:02;11.73;;;10.50;;
7813;SDS011;3952;48.364;16.022;2022-08-25T06:12:31;10.37;;;9.57;;
7813;SDS011;3952;48.364;16.022;2022-08-25T06:15:00;10.50;;;9.70;;
7813;SDS011;3952;48.364;16.022;2022-08-25T06:17:27;9.63;;;9.03;;
7813;SDS011;3952;48.364;16.022;2022-08-25T06:19:55;9.83;;;9.23;;
7813;SDS011;3952;48.364;16.022;2022-08-25T06:22:22;11.27;;;10.40;;
7813;SDS011;3952;48.364;16.022;2022-08-25T06:24:51;10.80;;;9.90;;
7813;SDS011;3952;48.364;16.022;2022-08-25T06:27:20;12.47;;;11.33;;
7813;SDS011;3952;48.364;16.022;2022-08-25T06:29:47;10.93;;;9.93;;
7813;SDS011;3952;48.364;16.022;2022-08-25T06:32:14;11.20;;;9.87;;
7813;SDS011;3952;48.364;16.022;2022-08-25T06:34:41;11.57;;;10.23;;
7813;SDS011;3952;48.364;16.022;2022-08-25T06:37:08;11.10;;;10.20;;
7813;SDS011;3952;48.364;16.022;2022-08-25T06:39:35;13.90;;;11.37;;
7813;SDS011;3952;48.364;16.022;2022-08-25T06:42:04;11.23;;;10.23;;
7813;SDS011;3952;48.364;16.022;2022-08-25T06:44:32;11.17;;;10.17;;
7813;SDS011;3952;48.364;16.022;2022-08-25T06:46:59;12.83;;;11.60;;
7813;SDS011;3952;48.364;16.022;2022-08-25T06:49:26;11.37;;;10.30;;
7813;SDS011;3952;48.364;16.022;2022-08-25T06:51:53;11.30;;;10.40;;
7813;SDS011;3952;48.364;16.022;2022-08-25T06:54:21;11.67;;;10.63;;
7813;SDS011;3952;48.364;16.022;2022-08-25T06:56:48;14.47;;;11.83;;
7813;SDS011;3952;48.364;16.022;2022-08-25T06:59:17;11.23;;;10.23;;
7813;SDS011;3952;48.364;16.022;2022-08-25T07:01:44;12.37;;;11.17;;
7813;SDS011;3952;48.364;16.022;2022-08-25T07:04:11;12.40;;;11.50;;
7813;SDS011;3952;48.364;16.022;2022-08-25T07:06:38;12.23;;;11.27;;
7813;SDS011;3952;48.364;16.022;2022-08-25T07:09:06;13.10;;;11.80;;
7813;SDS011;3952;48.364;16.022;2022-08-25T07:11:35;13.10;;;11.17;;
7813;SDS011;3952;48.364;16.022;2022-08-25T07:14:02;13.07;;;11.80;;
7813;SDS011;3952;48.364;16.022;2022-08-25T07:16:33;12.53;;;11.37;;
7813;SDS011;3952;48.364;16.022;2022-08-25T07:19:02;13.00;;;11.80;;
7813;SDS011;3952;48.364;16.022;2022-08-25T07:21:31;16.63;;;13.23;;
7813;SDS011;3952;48.364;16.022;2022-08-25T07:24:00;16.40;;;14.97;;
7813;SDS011;3952;48.364;16.022;2022-08-25T07:26:30;15.27;;;13.83;;
7813;SDS011;3952;48.364;16.022;2022-08-25T07:28:59;14.50;;;13.13;;
7813;SDS011;3952;48.364;16.022;2022-08-25T07:31:28;14.70;;;13.57;;
7813;SDS011;3952;48.364;16.022;2022-08-25T07:33:57;15.93;;;14.32;;
7813;SDS011;3952;48.364;16.022;2022-08-25T07:36:41;15.98;;;14.27;;
7813;SDS011;3952;48.364;16.022;2022-08-25T07:39:08;21.65;;;16.48;;
7813;SDS011;3952;48.364;16.022;2022-08-25T07:41:37;16.93;;;15.27;;
7813;SDS011;3952;48.364;16.022;2022-08-25T07:44:07;18.77;;;16.33;;
7813;SDS011;3952;48.364;16.022;2022-08-25T07:46:36;25.75;;;17.27;;
7813;SDS011;3952;48.364;16.022;2022-08-25T07:49:05;27.73;;;18.48;;
7813;SDS011;3952;48.364;16.022;2022-08-25T07:51:33;27.90;;;17.37;;
7813;SDS011;3952;48.364;16.022;2022-08-25T07:54:00;18.40;;;15.90;;
7813;SDS011;3952;48.364;16.022;2022-08-25T07:56:27;19.25;;;16.58;;
7813;SDS011;3952;48.364;16.022;2022-08-25T07:58:54;23.05;;;15.88;;
7813;SDS011;3952;48.364;16.022;2022-08-25T08:01:22;29.55;;;18.70;;
7813;SDS011;3952;48.364;16.022;2022-08-25T08:03:50;19.98;;;17.88;;
7813;SDS011;3952;48.364;16.022;2022-08-25T08:06:20;30.47;;;19.17;;
7813;SDS011;3952;48.364;16.022;2022-08-25T08:08:50;27.65;;;19.13;;
7813;SDS011;3952;48.364;16.022;2022-08-25T08:11:20;28.93;;;19.93;;
7813;SDS011;3952;48.364;16.022;2022-08-25T08:13:50;23.40;;;19.07;;
7813;SDS011;3952;48.364;16.022;2022-08-25T08:16:18;20.27;;;17.87;;
7813;SDS011;3952;48.364;16.022;2022-08-25T08:18:47;28.60;;;19.73;;
7813;SDS011;3952;48.364;16.022;2022-08-25T08:21:16;25.98;;;19.77;;
7813;SDS011;3952;48.364;16.022;2022-08-25T08:23:47;23.60;;;18.63;;
7813;SDS011;3952;48.364;16.022;2022-08-25T08:26:16;18.45;;;16.40;;
7813;SDS011;3952;48.364;16.022;2022-08-25T08:28:43;23.05;;;16.95;;
7813;SDS011;3952;48.364;16.022;2022-08-25T08:31:11;16.13;;;14.73;;
7813;SDS011;3952;48.364;16.022;2022-08-25T08:33:38;15.95;;;14.35;;
7813;SDS011;3952;48.364;16.022;2022-08-25T08:36:06;18.40;;;14.43;;
7813;SDS011;3952;48.364;16.022;2022-08-25T08:38:37;16.52;;;14.90;;
7813;SDS011;3952;48.364;16.022;2022-08-25T08:41:11;15.43;;;13.93;;
7813;SDS011;3952;48.364;16.022;2022-08-25T08:44:05;16.90;;;14.60;;
7813;SDS011;3952;48.364;16.022;2022-08-25T08:46:39;15.77;;;14.45;;
7813;SDS011;3952;48.364;16.022;2022-08-25T08:49:16;19.08;;;14.27;;
7813;SDS011;3952;48.364;16.022;2022-08-25T08:51:50;21.20;;;15.00;;
7813;SDS011;3952;48.364;16.022;2022-08-25T08:54:22;16.88;;;14.93;;
7813;SDS011;3952;48.364;16.022;2022-08-25T08:56:54;16.58;;;14.98;;
7813;SDS011;3952;48.364;16.022;2022-08-25T08:59:30;21.05;;;16.40;;
7813;SDS011;3952;48.364;16.022;2022-08-25T09:02:06;18.90;;;16.83;;
7813;SDS011;3952;48.364;16.022;2022-08-25T09:04:40;22.52;;;17.20;;
7813;SDS011;3952;48.364;16.022;2022-08-25T09:07:13;25.27;;;17.95;;
7813;SDS011;3952;48.364;16.022;2022-08-25T09:09:44;29.95;;;18.25;;
7813;SDS011;3952;48.364;16.022;2022-08-25T09:12:14;26.53;;;17.67;;
7813;SDS011;3952;48.364;16.022;2022-08-25T09:14:53;24.23;;;18.20;;
7813;SDS011;3952;48.364;16.022;2022-08-25T09:17:37;25.02;;;17.75;;
7813;SDS011;3952;48.364;16.022;2022-08-25T09:20:37;31.05;;;18.23;;
7813;SDS011;3952;48.364;16.022;2022-08-25T09:23:19;29.83;;;18.58;;
7813;SDS011;3952;48.364;16.022;2022-08-25T09:26:01;26.67;;;17.23;;
7813;SDS011;3952;48.364;16.022;2022-08-25T09:28:40;23.38;;;16.90;;
7813;SDS011;3952;48.364;16.022;2022-08-25T09:31:14;23.73;;;16.95;;
7813;SDS011;3952;48.364;16.022;2022-08-25T09:33:46;23.98;;;16.02;;
7813;SDS011;3952;48.364;16.022;2022-08-25T09:36:14;25.27;;;15.27;;
7813;SDS011;3952;48.364;16.022;2022-08-25T09:38:41;21.05;;;16.02;;
7813;SDS011;3952;48.364;16.022;2022-08-25T09:41:08;16.08;;;13.30;;
7813;SDS011;3952;48.364;16.022;2022-08-25T09:43:37;23.75;;;14.93;;
7813;SDS011;3952;48.364;16.022;2022-08-25T09:46:09;17.63;;;14.18;;
7813;SDS011;3952;48.364;16.022;2022-08-25T09:48:42;26.10;;;15.32;;
7813;SDS011;3952;48.364;16.022;2022-08-25T09:51:15;19.98;;;15.48;;
7813;SDS011;3952;48.364;16.022;2022-08-25T09:53:47;19.70;;;13.75;;
7813;SDS011;3952;48.364;16.022;2022-08-25T09:56:19;32.50;;;15.30;;
7813;SDS011;3952;48.364;16.022;2022-08-25T09:58:50;16.90;;;12.90;;
7813;SDS011;3952;48.364;16.022;2022-08-25T10:01:21;20.13;;;14.55;;
7813;SDS011;3952;48.364;16.022;2022-08-25T10:03:54;21.67;;;13.25;;
7813;SDS011;3952;48.364;16.022;2022-08-25T10:06:23;14.13;;;12.68;;
7813;SDS011;3952;48.364;16.022;2022-08-25T10:08:55;19.02;;;12.93;;
7813;SDS011;3952;48.364;16.022;2022-08-25T10:11:29;20.13;;;13.15;;
7813;SDS011;3952;48.364;16.022;2022-08-25T10:14:13;16.90;;;14.25;;
7813;SDS011;3952;48.364;16.022;2022-08-25T10:16:43;17.85;;;13.40;;
7813;SDS011;3952;48.364;16.022;2022-08-25T10:19:12;23.77;;;13.60;;
7813;SDS011;3952;48.364;16.022;2022-08-25T10:22:01;17.65;;;12.88;;
7813;SDS011;3952;48.364;16.022;2022-08-25T10:24:33;20.83;;;12.77;;
7813;SDS011;3952;48.364;16.022;2022-08-25T10:27:03;18.15;;;12.43;;
7813;SDS011;3952;48.364;16.022;2022-08-25T10:29:45;16.15;;;12.80;;
7813;SDS011;3952;48.364;16.022;2022-08-25T10:32:39;15.40;;;12.00;;
7813;SDS011;3952;48.364;16.022;2022-08-25T10:35:33;20.08;;;12.82;;
7813;SDS011;3952;48.364;16.022;2022-08-25T10:38:09;16.75;;;12.30;;
7813;SDS011;3952;48.364;16.022;2022-08-25T10:40:49;17.02;;;12.32;;
7813;SDS011;3952;48.364;16.022;2022-08-25T10:43:23;17.17;;;11.82;;
7813;SDS011;3952;48.364;16.022;2022-08-25T10:46:00;12.85;;;11.55;;
7813;SDS011;3952;48.364;16.022;2022-08-25T10:48:42;19.85;;;11.48;;
7813;SDS011;3952;48.364;16.022;2022-08-25T10:54:24;12.38;;;11.10;;
7813;SDS011;3952;48.364;16.022;2022-08-25T10:57:02;12.48;;;11.27;;
7813;SDS011;3952;48.364;16.022;2022-08-25T10:59:42;17.50;;;11.15;;
7813;SDS011;3952;48.364;16.022;2022-08-25T11:02:26;11.60;;;10.48;;
7813;SDS011;3952;48.364;16.022;2022-08-25T11:05:24;12.40;;;11.18;;
7813;SDS011;3952;48.364;16.022;2022-08-25T11:07:58;17.60;;;10.88;;
7813;SDS011;3952;48.364;16.022;2022-08-25T11:10:33;13.98;;;10.80;;
7813;SDS011;3952;48.364;16.022;2022-08-25T11:13:08;14.13;;;11.68;;
7813;SDS011;3952;48.364;16.022;2022-08-25T11:15:42;13.63;;;10.82;;
7813;SDS011;3952;48.364;16.022;2022-08-25T11:18:19;15.68;;;11.07;;
7813;SDS011;3952;48.364;16.022;2022-08-25T11:20:49;13.15;;;10.38;;
7813;SDS011;3952;48.364;16.022;2022-08-25T11:23:27;17.60;;;11.05;;
7813;SDS011;3952;48.364;16.022;2022-08-25T11:25:59;12.23;;;10.07;;
7813;SDS011;3952;48.364;16.022;2022-08-25T11:28:34;11.10;;;9.98;;
7813;SDS011;3952;48.364;16.022;2022-08-25T11:31:14;14.38;;;10.88;;
7813;SDS011;3952;48.364;16.022;2022-08-25T11:33:45;13.90;;;10.23;;
7813;SDS011;3952;48.364;16.022;2022-08-25T11:36:24;14.75;;;10.40;;
7813;SDS011;3952;48.364;16.022;2022-08-25T11:38:58;16.75;;;10.18;;
7813;SDS011;3952;48.364;16.022;2022-08-25T11:41:39;17.02;;;10.00;;
7813;SDS011;3952;48.364;16.022;2022-08-25T11:44:25;12.15;;;10.23;;
7813;SDS011;3952;48.364;16.022;2022-08-25T11:47:09;17.67;;;9.60;;
7813;SDS011;3952;48.364;16.022;2022-08-25T11:49:56;9.95;;;9.05;;
7813;SDS011;3952;48.364;16.022;2022-08-25T11:52:40;14.88;;;9.27;;
7813;SDS011;3952;48.364;16.022;2022-08-25T11:55:11;14.38;;;9.30;;
7813;SDS011;3952;48.364;16.022;2022-08-25T11:57:41;15.15;;;9.15;;
7813;SDS011;3952;48.364;16.022;2022-08-25T12:00:11;12.70;;;9.23;;
7813;SDS011;3952;48.364;16.022;2022-08-25T12:02:41;12.60;;;9.27;;
7813;SDS011;3952;48.364;16.022;2022-08-25T12:05:48;12.55;;;9.35;;
7813;SDS011;3952;48.364;16.022;2022-08-25T12:08:49;13.48;;;9.27;;
7813;SDS011;3952;48.364;16.022;2022-08-25T12:14:13;16.05;;;9.98;;
7813;SDS011;3952;48.364;16.022;2022-08-25T12:16:59;12.88;;;10.00;;
7813;SDS011;3952;48.364;16.022;2022-08-25T12:19:46;15.07;;;9.38;;
7813;SDS011;3952;48.364;16.022;2022-08-25T12:25:11;16.35;;;9.75;;
7813;SDS011;3952;48.364;16.022;2022-08-25T12:27:49;18.85;;;9.90;;
7813;SDS011;3952;48.364;16.022;2022-08-25T12:30:26;15.38;;;9.75;;
7813;SDS011;3952;48.364;16.022;2022-08-25T12:33:00;15.00;;;10.13;;
7813;SDS011;3952;48.364;16.022;2022-08-25T12:35:36;13.02;;;9.88;;
7813;SDS011;3952;48.364;16.022;2022-08-25T12:38:15;12.57;;;9.52;;
7813;SDS011;3952;48.364;16.022;2022-08-25T12:40:56;13.90;;;9.43;;
7813;SDS011;3952;48.364;16.022;2022-08-25T12:43:27;10.05;;;9.15;;
7813;SDS011;3952;48.364;16.022;2022-08-25T12:48:59;14.30;;;10.10;;
7813;SDS011;3952;48.364;16.022;2022-08-25T12:51:39;9.60;;;8.70;;
7813;SDS011;3952;48.364;16.022;2022-08-25T12:54:19;10.57;;;9.05;;
7813;SDS011;3952;48.364;16.022;2022-08-25T12:56:56;10.20;;;9.10;;
7813;SDS011;3952;48.364;16.022;2022-08-25T12:59:31;12.13;;;9.40;;
7813;SDS011;3952;48.364;16.022;2022-08-25T13:05:26;10.45;;;9.55;;
7813;SDS011;3952;48.364;16.022;2022-08-25T13:08:21;13.82;;;9.00;;
7813;SDS011;3952;48.364;16.022;2022-08-25T13:11:07;15.40;;;9.40;;
7813;SDS011;3952;48.364;16.022;2022-08-25T13:13:43;15.43;;;9.05;;
7813;SDS011;3952;48.364;16.022;2022-08-25T13:16:15;9.68;;;8.48;;
7813;SDS011;3952;48.364;16.022;2022-08-25T13:18:44;11.40;;;8.52;;
7813;SDS011;3952;48.364;16.022;2022-08-25T13:21:14;9.52;;;7.90;;
7813;SDS011;3952;48.364;16.022;2022-08-25T13:23:44;10.50;;;8.25;;
7813;SDS011;3952;48.364;16.022;2022-08-25T13:26:14;9.65;;;8.35;;
7813;SDS011;3952;48.364;16.022;2022-08-25T13:28:50;8.90;;;7.93;;
7813;SDS011;3952;48.364;16.022;2022-08-25T13:31:22;8.30;;;7.65;;
7813;SDS011;3952;48.364;16.022;2022-08-25T13:33:53;8.88;;;8.15;;
7813;SDS011;3952;48.364;16.022;2022-08-25T13:36:22;10.95;;;8.80;;
7813;SDS011;3952;48.364;16.022;2022-08-25T13:39:11;9.38;;;8.45;;
7813;SDS011;3952;48.364;16.022;2022-08-25T13:41:43;9.05;;;8.15;;
7813;SDS011;3952;48.364;16.022;2022-08-25T13:44:14;12.13;;;8.60;;
7813;SDS011;3952;48.364;16.022;2022-08-25T13:46:42;9.95;;;8.10;;
7813;SDS011;3952;48.364;16.022;2022-08-25T13:49:11;8.93;;;7.35;;
7813;SDS011;3952;48.364;16.022;2022-08-25T13:51:50;9.48;;;8.13;;
7813;SDS011;3952;48.364;16.022;2022-08-25T13:54:22;9.35;;;7.70;;
7813;SDS011;3952;48.364;16.022;2022-08-25T13:56:52;10.80;;;8.18;;
7813;SDS011;3952;48.364;16.022;2022-08-25T13:59:22;12.70;;;7.10;;
7813;SDS011;3952;48.364;16.022;2022-08-25T14:01:52;9.32;;;7.60;;
7813;SDS011;3952;48.364;16.022;2022-08-25T14:04:25;8.63;;;7.82;;
7813;SDS011;3952;48.364;16.022;2022-08-25T14:07:07;7.65;;;7.05;;
7813;SDS011;3952;48.364;16.022;2022-08-25T14:09:43;8.07;;;7.38;;
7813;SDS011;3952;48.364;16.022;2022-08-25T14:12:26;11.00;;;8.07;;
7813;SDS011;3952;48.364;16.022;2022-08-25T14:14:59;10.05;;;7.60;;
7813;SDS011;3952;48.364;16.022;2022-08-25T14:17:28;11.75;;;7.63;;
7813;SDS011;3952;48.364;16.022;2022-08-25T14:19:55;9.27;;;7.70;;
7813;SDS011;3952;48.364;16.022;2022-08-25T14:22:24;8.52;;;7.65;;
7813;SDS011;3952;48.364;16.022;2022-08-25T14:24:52;11.27;;;7.45;;
7813;SDS011;3952;48.364;16.022;2022-08-25T14:27:20;8.15;;;7.53;;
7813;SDS011;3952;48.364;16.022;2022-08-25T14:29:47;9.55;;;7.50;;
7813;SDS011;3952;48.364;16.022;2022-08-25T14:32:16;8.40;;;7.53;;
7813;SDS011;3952;48.364;16.022;2022-08-25T14:34:43;8.02;;;6.70;;
7813;SDS011;3952;48.364;16.022;2022-08-25T14:37:12;7.32;;;6.78;;
7813;SDS011;3952;48.364;16.022;2022-08-25T14:39:41;9.20;;;6.50;;
7813;SDS011;3952;48.364;16.022;2022-08-25T14:42:08;6.60;;;6.18;;
7813;SDS011;3952;48.364;16.022;2022-08-25T14:44:36;7.53;;;6.80;;
7813;SDS011;3952;48.364;16.022;2022-08-25T14:47:04;9.18;;;6.57;;
7813;SDS011;3952;48.364;16.022;2022-08-25T14:49:35;6.97;;;6.28;;
7813;SDS011;3952;48.364;16.022;2022-08-25T14:52:08;7.18;;;6.45;;
7813;SDS011;3952;48.364;16.022;2022-08-25T14:54:41;7.25;;;6.45;;
7813;SDS011;3952;48.364;16.022;2022-08-25T14:57:09;8.02;;;6.20;;
7813;SDS011;3952;48.364;16.022;2022-08-25T14:59:36;7.45;;;6.85;;
7813;SDS011;3952;48.364;16.022;2022-08-25T15:02:03;7.72;;;7.03;;
7813;SDS011;3952;48.364;16.022;2022-08-25T15:04:32;6.50;;;5.95;;
7813;SDS011;3952;48.364;16.022;2022-08-25T15:07:03;6.57;;;6.07;;
7813;SDS011;3952;48.364;16.022;2022-08-25T15:09:52;6.32;;;5.90;;
7813;SDS011;3952;48.364;16.022;2022-08-25T15:12:18;8.93;;;6.00;;
7813;SDS011;3952;48.364;16.022;2022-08-25T15:14:47;6.63;;;5.97;;
7813;SDS011;3952;48.364;16.022;2022-08-25T15:17:14;6.03;;;5.55;;
7813;SDS011;3952;48.364;16.022;2022-08-25T15:19:44;5.68;;;5.20;;
7813;SDS011;3952;48.364;16.022;2022-08-25T15:22:11;6.63;;;5.95;;
7813;SDS011;3952;48.364;16.022;2022-08-25T15:24:38;6.07;;;5.68;;